createdAt,value
2023-11-15T00:02:02.095Z,11.17
2023-11-15T00:04:34.109Z,11.05
2023-11-15T00:07:07.746Z,10.97
2023-11-15T00:09:39.732Z,11.07
2023-11-15T00:12:12.571Z,11.01
2023-11-15T00:14:46.245Z,11.13
2023-11-15T00:17:18.856Z,10.96
2023-11-15T00:19:50.930Z,11.02
2023-11-15T00:22:26.793Z,11.16
2023-11-15T00:24:59.055Z,11.28
2023-11-15T00:27:31.074Z,11.31
2023-11-15T00:30:04.344Z,11.42
2023-11-15T00:32:36.482Z,11.52
2023-11-15T00:35:09.938Z,11.63
2023-11-15T00:38:05.898Z,11.57
2023-11-15T00:40:38.476Z,11.66
2023-11-15T00:43:11.072Z,11.55
2023-11-15T00:45:43.083Z,11.38
2023-11-15T00:48:15.641Z,11.33
2023-11-15T00:50:47.808Z,11.19
2023-11-15T00:53:20.152Z,11.03
2023-11-15T00:55:52.816Z,10.90
2023-11-15T00:58:29.644Z,11.12
2023-11-15T01:01:01.895Z,11.16
2023-11-15T01:03:34.403Z,11.07
2023-11-15T01:06:08.375Z,11.09
2023-11-15T01:08:40.746Z,10.98
2023-11-15T01:11:13.482Z,10.94
2023-11-15T01:13:45.627Z,10.84
2023-11-15T01:16:18.465Z,10.87
2023-11-15T01:18:51.092Z,10.82
2023-11-15T01:21:25.606Z,10.90
2023-11-15T01:23:57.714Z,10.85
2023-11-15T01:26:30.126Z,10.81
2023-11-15T01:29:03.016Z,10.80
2023-11-15T01:31:35.272Z,11.06
2023-11-15T01:34:07.802Z,11.19
2023-11-15T01:36:39.840Z,11.11
2023-11-15T01:39:17.670Z,11.14
2023-11-15T01:41:50.838Z,11.00
2023-11-15T01:44:24.170Z,10.95
2023-11-15T01:46:56.370Z,11.04
2023-11-15T01:49:29.191Z,11.01
2023-11-15T01:52:02.354Z,10.98
2023-11-15T01:54:34.438Z,11.00
2023-11-15T01:57:06.909Z,10.95
2023-11-15T01:59:39.228Z,10.86
2023-11-15T02:02:11.911Z,10.74
2023-11-15T02:04:44.323Z,10.83
2023-11-15T02:07:16.342Z,10.85
2023-11-15T02:09:48.817Z,10.83
2023-11-15T02:12:22.059Z,10.91
2023-11-15T02:14:55.362Z,11.10
2023-11-15T02:17:27.547Z,11.41
2023-11-15T02:19:59.986Z,11.37
2023-11-15T02:22:33.696Z,11.23
2023-11-15T02:25:07.039Z,11.03
2023-11-15T02:27:39.453Z,11.07
2023-11-15T02:30:13.239Z,11.04
2023-11-15T02:32:46.366Z,11.03
2023-11-15T02:35:18.542Z,10.94
2023-11-15T02:37:51.535Z,10.99
2023-11-15T02:40:23.517Z,10.96
2023-11-15T02:42:58.628Z,11.04
2023-11-15T02:45:30.635Z,11.03
2023-11-15T02:48:03.209Z,11.06
2023-11-15T02:50:35.504Z,11.13
2023-11-15T02:53:07.481Z,11.11
2023-11-15T02:55:39.591Z,10.98
2023-11-15T02:58:13.153Z,11.19
2023-11-15T03:00:46.118Z,11.10
2023-11-15T03:03:18.370Z,11.21
2023-11-15T03:05:50.847Z,11.25
2023-11-15T03:08:24.955Z,11.05
2023-11-15T03:10:57.047Z,10.97
2023-11-15T03:13:29.294Z,10.93
2023-11-15T03:16:02.489Z,11.10
2023-11-15T03:18:34.669Z,11.03
2023-11-15T03:21:08.889Z,10.89
2023-11-15T03:23:40.950Z,10.82
2023-11-15T03:26:12.974Z,10.85
2023-11-15T03:28:45.286Z,10.89
2023-11-15T03:31:17.585Z,11.01
2023-11-15T03:33:52.166Z,10.90
2023-11-15T03:36:24.958Z,11.03
2023-11-15T03:38:57.039Z,10.95
2023-11-15T03:41:29.096Z,11.03
2023-11-15T03:44:01.198Z,10.98
2023-11-15T03:46:33.259Z,11.08
2023-11-15T03:49:05.347Z,11.21
2023-11-15T03:51:37.364Z,11.14
2023-11-15T03:54:10.439Z,11.15
2023-11-15T03:56:42.423Z,11.07
2023-11-15T03:59:14.738Z,11.08
2023-11-15T04:01:55.121Z,10.95
2023-11-15T04:04:31.094Z,10.92
2023-11-15T04:07:04.779Z,11.00
2023-11-15T04:09:37.508Z,11.02
2023-11-15T04:12:10.509Z,11.19
2023-11-15T04:14:42.587Z,11.10
2023-11-15T04:17:15.285Z,11.19
2023-11-15T04:19:47.654Z,11.29
2023-11-15T04:22:19.768Z,11.16
2023-11-15T04:24:53.861Z,11.19
2023-11-15T04:27:26.659Z,11.18
2023-11-15T04:29:59.280Z,11.05
2023-11-15T04:32:31.386Z,11.19
2023-11-15T04:35:04.321Z,11.15
2023-11-15T04:37:36.919Z,11.09
2023-11-15T04:40:12.053Z,11.19
2023-11-15T04:42:46.538Z,11.40
2023-11-15T04:45:18.882Z,11.22
2023-11-15T04:47:51.298Z,11.31
2023-11-15T04:50:24.405Z,11.43
2023-11-15T04:52:58.806Z,11.53
2023-11-15T04:55:30.934Z,11.51
2023-11-15T04:58:02.987Z,11.60
2023-11-15T05:00:35.193Z,11.76
2023-11-15T05:03:07.504Z,11.81
2023-11-15T05:05:44.207Z,11.84
2023-11-15T05:08:16.386Z,11.71
2023-11-15T05:10:48.844Z,11.82
2023-11-15T05:13:21.080Z,11.74
2023-11-15T05:15:53.465Z,11.96
2023-11-15T05:18:25.848Z,11.79
2023-11-15T05:20:58.257Z,11.71
2023-11-15T05:23:30.347Z,11.68
2023-11-15T05:26:02.433Z,11.65
2023-11-15T05:28:34.604Z,11.53
2023-11-15T05:31:07.660Z,11.50
2023-11-15T05:33:39.912Z,11.75
2023-11-15T05:36:13.599Z,11.70
2023-11-15T05:38:45.621Z,12.04
2023-11-15T05:41:17.777Z,11.65
2023-11-15T05:43:49.841Z,11.60
2023-11-15T05:46:22.470Z,11.71
2023-11-15T05:48:55.618Z,11.79
2023-11-15T05:51:27.972Z,11.90
2023-11-15T05:54:05.462Z,11.81
2023-11-15T05:56:38.127Z,11.85
2023-11-15T05:59:11.161Z,11.82
2023-11-15T06:01:43.446Z,11.75
2023-11-15T06:04:15.643Z,11.77
2023-11-15T06:06:48.042Z,11.78
2023-11-15T06:09:20.208Z,11.76
2023-11-15T06:11:55.657Z,11.63
2023-11-15T06:14:27.875Z,11.64
2023-11-15T06:17:00.241Z,11.66
2023-11-15T06:19:32.966Z,11.79
2023-11-15T06:22:05.405Z,11.78
2023-11-15T06:24:37.652Z,11.55
2023-11-15T06:27:09.769Z,11.52
2023-11-15T06:29:42.011Z,11.72
2023-11-15T06:32:14.212Z,11.59
2023-11-15T06:34:46.494Z,11.71
2023-11-15T06:37:19.254Z,11.68
2023-11-15T06:39:51.481Z,11.82
2023-11-15T06:42:23.564Z,11.94
2023-11-15T06:44:55.600Z,11.89
2023-11-15T06:47:30.494Z,11.87
2023-11-15T06:50:02.653Z,11.88
2023-11-15T06:52:35.186Z,11.75
2023-11-15T06:55:10.973Z,11.78
2023-11-15T06:57:45.014Z,11.81
2023-11-15T07:00:18.553Z,11.76
2023-11-15T07:02:50.862Z,11.83
2023-11-15T07:05:23.475Z,11.85
2023-11-15T07:07:56.173Z,11.89
2023-11-15T07:10:31.320Z,11.82
2023-11-15T07:13:03.920Z,11.86
2023-11-15T07:15:36.676Z,11.84
2023-11-15T07:18:08.887Z,11.82
2023-11-15T07:20:43.534Z,11.92
2023-11-15T07:23:16.390Z,11.87
2023-11-15T07:25:48.467Z,11.81
2023-11-15T07:28:20.986Z,11.83
2023-11-15T07:30:56.725Z,11.83
2023-11-15T07:33:29.043Z,11.78
2023-11-15T07:36:01.344Z,11.90
2023-11-15T07:38:36.072Z,11.62
2023-11-15T07:41:08.886Z,11.64
2023-11-15T07:43:42.510Z,11.62
2023-11-15T07:46:15.093Z,11.55
2023-11-15T07:48:50.067Z,11.49
2023-11-15T07:51:22.213Z,11.65
2023-11-15T07:53:54.251Z,11.54
2023-11-15T07:56:26.254Z,11.56
2023-11-15T07:58:58.302Z,11.54
2023-11-15T08:01:30.882Z,11.62
2023-11-15T08:04:04.002Z,11.58
2023-11-15T08:06:37.266Z,11.60
2023-11-15T08:09:12.632Z,11.58
2023-11-15T08:11:46.370Z,11.68
2023-11-15T08:14:18.917Z,11.67
2023-11-15T08:16:51.376Z,11.62
2023-11-15T08:19:23.859Z,11.67
2023-11-15T08:21:57.786Z,11.64
2023-11-15T08:24:29.805Z,11.46
2023-11-15T08:27:02.275Z,11.48
2023-11-15T08:29:34.265Z,11.57
2023-11-15T08:32:07.478Z,11.59
2023-11-15T08:34:39.529Z,11.62
2023-11-15T08:37:14.003Z,11.66
2023-11-15T08:39:46.140Z,11.65
2023-11-15T08:42:18.383Z,11.66
2023-11-15T08:44:50.478Z,11.61
2023-11-15T08:47:23.037Z,11.53
2023-11-15T08:49:55.438Z,11.58
2023-11-15T08:52:27.945Z,11.59
2023-11-15T08:55:00.407Z,11.55
2023-11-15T08:57:32.606Z,11.51
2023-11-15T09:00:04.940Z,11.57
2023-11-15T09:02:37.163Z,11.72
2023-11-15T09:05:10.153Z,11.61
2023-11-15T09:07:43.148Z,11.57
2023-11-15T09:10:15.582Z,11.53
2023-11-15T09:12:47.744Z,11.43
2023-11-15T09:15:21.559Z,11.50
2023-11-15T09:17:53.787Z,11.50
2023-11-15T09:20:28.730Z,11.41
2023-11-15T09:23:01.184Z,11.31
2023-11-15T09:25:36.719Z,11.32
2023-11-15T09:28:08.865Z,11.44
2023-11-15T09:30:41.307Z,11.35
2023-11-15T09:33:17.937Z,11.38
2023-11-15T09:35:55.233Z,11.26
2023-11-15T09:38:33.548Z,11.22
2023-11-15T09:41:11.400Z,11.31
2023-11-15T09:43:45.548Z,11.31
2023-11-15T09:46:17.784Z,11.25
2023-11-15T09:48:57.078Z,11.32
2023-11-15T09:51:35.598Z,11.35
2023-11-15T09:54:16.058Z,11.30
2023-11-15T09:56:51.002Z,11.30
2023-11-15T09:59:24.282Z,11.40
2023-11-15T10:01:58.674Z,11.32
2023-11-15T10:04:31.445Z,11.43
2023-11-15T10:07:06.437Z,11.45
2023-11-15T10:09:41.637Z,11.40
2023-11-15T10:12:14.367Z,11.44
2023-11-15T10:14:54.893Z,11.51
2023-11-15T10:17:42.096Z,11.46
2023-11-15T10:20:26.890Z,11.47
2023-11-15T10:22:59.389Z,11.38
2023-11-15T10:25:32.900Z,11.47
2023-11-15T10:28:08.863Z,11.38
2023-11-15T10:30:42.276Z,11.40
2023-11-15T10:33:15.695Z,11.28
2023-11-15T10:35:48.573Z,11.43
2023-11-15T10:38:24.675Z,11.32
2023-11-15T10:40:58.772Z,11.37
2023-11-15T10:43:31.772Z,11.36
2023-11-15T10:46:07.017Z,11.32
2023-11-15T10:48:41.752Z,11.33
2023-11-15T10:51:15.792Z,11.16
2023-11-15T10:53:48.958Z,11.13
2023-11-15T10:56:23.416Z,11.08
2023-11-15T10:58:56.245Z,10.86
2023-11-15T11:01:30.673Z,11.02
2023-11-15T11:04:08.822Z,11.04
2023-11-15T11:06:48.993Z,11.03
2023-11-15T11:09:27.029Z,11.16
2023-11-15T11:12:07.153Z,11.19
2023-11-15T11:14:39.788Z,11.23
2023-11-15T11:17:35.475Z,11.14
2023-11-15T11:20:27.914Z,11.15
2023-11-15T11:23:18.403Z,11.11
2023-11-15T11:25:53.350Z,11.18
2023-11-15T11:28:25.823Z,11.21
2023-11-15T11:31:19.256Z,11.10
2023-11-15T11:34:10.995Z,11.20
2023-11-15T11:36:51.994Z,11.16
2023-11-15T11:39:44.820Z,11.16
2023-11-15T11:42:28.025Z,11.05
2023-11-15T11:45:00.247Z,11.03
2023-11-15T11:47:32.693Z,10.93
2023-11-15T11:50:07.674Z,11.09
2023-11-15T11:52:40.839Z,11.08
2023-11-15T11:55:13.970Z,11.06
2023-11-15T11:57:46.214Z,11.16
2023-11-15T12:00:22.281Z,11.13
2023-11-15T12:03:01.124Z,10.93
2023-11-15T12:05:40.965Z,10.97
2023-11-15T12:08:15.714Z,11.06
2023-11-15T12:10:48.965Z,10.97
2023-11-15T12:13:21.306Z,11.04
2023-11-15T12:15:53.459Z,11.05
2023-11-15T12:18:25.879Z,11.15
2023-11-15T12:20:58.621Z,11.15
2023-11-15T12:23:30.918Z,11.15
2023-11-15T12:26:05.605Z,11.07
2023-11-15T12:28:36.525Z,11.09
2023-11-15T12:31:10.260Z,11.13
2023-11-15T12:33:42.781Z,11.07
2023-11-15T12:36:16.905Z,11.09
2023-11-15T12:38:58.860Z,11.08
2023-11-15T12:41:30.900Z,11.10
2023-11-15T12:44:13.308Z,11.04
2023-11-15T12:46:46.378Z,10.99
2023-11-15T12:49:23.750Z,11.01
2023-11-15T12:51:55.854Z,11.04
2023-11-15T12:54:28.197Z,11.08
2023-11-15T12:57:13.128Z,11.06
2023-11-15T12:59:49.355Z,11.12
2023-11-15T13:02:28.168Z,11.16
2023-11-15T13:05:04.726Z,11.20
2023-11-15T13:07:37.089Z,11.18
2023-11-15T13:10:11.819Z,11.08
2023-11-15T13:12:43.808Z,11.15
2023-11-15T13:15:19.245Z,11.18
2023-11-15T13:17:52.614Z,11.21
2023-11-15T13:20:24.755Z,11.14
2023-11-15T13:22:56.776Z,11.32
2023-11-15T13:25:28.737Z,11.25
2023-11-15T13:28:01.055Z,11.08
2023-11-15T13:30:33.283Z,11.15
2023-11-15T13:33:05.581Z,11.06
2023-11-15T13:35:37.849Z,11.14
2023-11-15T13:38:13.131Z,11.04
2023-11-15T13:40:46.146Z,11.09
2023-11-15T13:43:18.143Z,11.16
2023-11-15T13:45:50.283Z,11.14
2023-11-15T13:48:22.872Z,11.10
2023-11-15T13:50:55.096Z,11.06
2023-11-15T13:53:27.721Z,11.18
2023-11-15T13:55:59.748Z,11.18
2023-11-15T13:58:32.093Z,11.26
2023-11-15T14:01:04.535Z,11.22
2023-11-15T14:03:36.687Z,11.20
2023-11-15T14:06:11.997Z,11.22
2023-11-15T14:08:52.072Z,11.14
2023-11-15T14:11:30.975Z,11.06
2023-11-15T14:14:05.291Z,11.20
2023-11-15T14:16:39.118Z,11.21
2023-11-15T14:19:11.543Z,11.22
2023-11-15T14:21:45.778Z,11.27
2023-11-15T14:24:18.194Z,11.31
2023-11-15T14:26:50.375Z,11.31
2023-11-15T14:29:23.149Z,11.17
2023-11-15T14:31:55.517Z,11.25
2023-11-15T14:34:30.034Z,11.13
2023-11-15T14:37:02.081Z,11.15
2023-11-15T14:39:34.196Z,11.11
2023-11-15T14:42:08.619Z,11.07
2023-11-15T14:44:41.237Z,11.06
2023-11-15T14:47:13.286Z,11.02
2023-11-15T14:49:45.475Z,10.99
2023-11-15T14:52:22.656Z,11.06
2023-11-15T14:54:54.762Z,11.07
2023-11-15T14:57:26.779Z,11.07
2023-11-15T14:59:58.971Z,11.13
2023-11-15T15:02:31.074Z,11.03
2023-11-15T15:05:06.600Z,11.06
2023-11-15T15:07:38.914Z,11.12
2023-11-15T15:10:13.185Z,11.03
2023-11-15T15:12:45.366Z,11.01
2023-11-15T15:15:18.661Z,10.99
2023-11-15T15:17:51.567Z,10.94
2023-11-15T15:20:26.167Z,10.84
2023-11-15T15:22:58.191Z,10.78
2023-11-15T15:25:30.279Z,10.75
2023-11-15T15:28:02.371Z,10.58
2023-11-15T15:30:34.498Z,10.66
2023-11-15T15:33:08.647Z,10.65
2023-11-15T15:35:40.469Z,10.64
2023-11-15T15:38:12.714Z,10.69
2023-11-15T15:40:46.112Z,10.65
2023-11-15T15:43:18.307Z,10.68
2023-11-15T15:45:50.423Z,10.69
2023-11-15T15:48:24.579Z,10.67
2023-11-15T15:50:57.060Z,10.71
2023-11-15T15:53:29.180Z,10.77
2023-11-15T15:56:01.211Z,10.83
2023-11-15T15:58:33.263Z,10.90
2023-11-15T16:01:05.586Z,10.89
2023-11-15T16:03:37.998Z,10.90
2023-11-15T16:06:11.058Z,10.92
2023-11-15T16:08:43.104Z,10.93
2023-11-15T16:11:15.365Z,10.95
2023-11-15T16:13:47.335Z,10.99
2023-11-15T16:16:19.404Z,11.01
2023-11-15T16:18:52.201Z,11.06
2023-11-15T16:21:24.494Z,11.06
2023-11-15T16:24:00.356Z,11.10
2023-11-15T16:26:32.480Z,11.14
2023-11-15T16:29:04.794Z,11.14
2023-11-15T16:31:36.926Z,11.16
2023-11-15T16:34:08.970Z,11.19
2023-11-15T16:36:41.821Z,11.19
2023-11-15T16:39:14.530Z,11.21
2023-11-15T16:41:51.706Z,11.21
2023-11-15T16:44:24.700Z,11.19
2023-11-15T16:46:56.862Z,11.16
2023-11-15T16:49:29.119Z,11.19
2023-11-15T16:52:02.449Z,11.16
2023-11-15T16:54:36.329Z,11.06
2023-11-15T16:57:08.697Z,11.12
2023-11-15T16:59:40.862Z,11.13
2023-11-15T17:02:13.331Z,11.12
2023-11-15T17:04:45.461Z,11.09
2023-11-15T17:07:17.731Z,11.08
2023-11-15T17:09:52.444Z,11.07
2023-11-15T17:12:26.257Z,11.09
2023-11-15T17:15:00.022Z,11.09
2023-11-15T17:17:32.340Z,11.08
2023-11-15T17:20:06.346Z,11.11
2023-11-15T17:22:38.676Z,11.09
2023-11-15T17:25:19.548Z,11.08
2023-11-15T17:27:53.310Z,11.05
2023-11-15T17:30:26.118Z,11.04
2023-11-15T17:33:00.973Z,11.08
2023-11-15T17:35:33.067Z,11.08
2023-11-15T17:38:05.212Z,11.07
2023-11-15T17:40:37.254Z,11.07
2023-11-15T17:43:09.308Z,11.06
2023-11-15T17:45:41.433Z,11.00
2023-11-15T17:48:13.629Z,11.01
2023-11-15T17:50:46.500Z,10.97
2023-11-15T17:53:19.730Z,11.00
2023-11-15T17:55:51.807Z,10.99
2023-11-15T17:58:23.873Z,11.01
2023-11-15T18:00:56.192Z,11.01
2023-11-15T18:03:28.647Z,10.93
2023-11-15T18:06:01.037Z,10.99
2023-11-15T18:08:33.735Z,10.98
2023-11-15T18:11:06.362Z,10.97
2023-11-15T18:13:38.407Z,10.96
2023-11-15T18:16:12.157Z,10.88
2023-11-15T18:18:44.398Z,10.95
2023-11-15T18:21:16.620Z,10.87
2023-11-15T18:23:50.599Z,10.84
2023-11-15T18:26:26.566Z,10.97
2023-11-15T18:28:58.688Z,10.98
2023-11-15T18:31:31.249Z,10.89
2023-11-15T18:34:03.497Z,10.82
2023-11-15T18:36:36.332Z,10.71
2023-11-15T18:39:13.003Z,10.80
2023-11-15T18:41:45.839Z,10.78
2023-11-15T18:44:18.916Z,10.77
2023-11-15T18:46:55.020Z,10.76
2023-11-15T18:49:28.097Z,10.73
2023-11-15T18:52:00.370Z,10.69
2023-11-15T18:54:32.703Z,10.65
2023-11-15T18:57:05.894Z,10.63
2023-11-15T18:59:38.108Z,10.62
2023-11-15T19:02:10.220Z,10.61
2023-11-15T19:04:42.879Z,10.55
2023-11-15T19:07:15.934Z,10.53
2023-11-15T19:09:48.114Z,10.50
2023-11-15T19:12:20.179Z,10.45
2023-11-15T19:14:52.448Z,10.29
2023-11-15T19:17:24.788Z,10.34
2023-11-15T19:19:59.400Z,10.32
2023-11-15T19:22:31.488Z,10.29
2023-11-15T19:25:03.826Z,10.24
2023-11-15T19:27:38.409Z,10.21
2023-11-15T19:30:13.495Z,10.06
2023-11-15T19:32:45.849Z,10.15
2023-11-15T19:35:20.713Z,10.08
2023-11-15T19:37:53.315Z,10.06
2023-11-15T19:40:25.617Z,10.05
2023-11-15T19:42:57.689Z,10.01
2023-11-15T19:45:29.971Z,9.97
2023-11-15T19:48:02.989Z,9.94
2023-11-15T19:50:36.855Z,9.92
2023-11-15T19:53:09.063Z,9.86
2023-11-15T19:55:41.434Z,9.77
2023-11-15T19:58:13.752Z,9.74
2023-11-15T20:00:46.082Z,9.65
2023-11-15T20:03:18.911Z,9.68
2023-11-15T20:05:52.630Z,9.67
2023-11-15T20:08:24.836Z,9.63
2023-11-15T20:10:56.917Z,9.60
2023-11-15T20:13:30.622Z,9.60
2023-11-15T20:16:02.736Z,9.47
2023-11-15T20:18:34.920Z,9.42
2023-11-15T20:21:09.021Z,9.35
2023-11-15T20:23:41.911Z,9.27
2023-11-15T20:26:14.029Z,9.28
2023-11-15T20:28:46.064Z,9.27
2023-11-15T20:31:19.252Z,9.26
2023-11-15T20:33:51.959Z,9.25
2023-11-15T20:36:24.080Z,9.25
2023-11-15T20:38:56.219Z,9.29
2023-11-15T20:41:30.686Z,9.31
2023-11-15T20:44:02.791Z,9.31
2023-11-15T20:46:35.187Z,9.21
2023-11-15T20:49:08.573Z,9.24
2023-11-15T20:51:45.858Z,9.24
2023-11-15T20:54:19.169Z,9.22
2023-11-15T20:56:51.395Z,9.19
2023-11-15T20:59:23.482Z,9.19
2023-11-15T21:01:55.489Z,9.17
2023-11-15T21:04:27.705Z,9.15
2023-11-15T21:07:01.056Z,9.13
2023-11-15T21:09:33.672Z,9.08
2023-11-15T21:12:06.527Z,9.04
2023-11-15T21:14:40.182Z,8.97
2023-11-15T21:17:12.270Z,8.92
2023-11-15T21:19:46.242Z,8.87
2023-11-15T21:22:18.770Z,8.81
2023-11-15T21:24:50.942Z,8.78
2023-11-15T21:27:23.644Z,8.73
2023-11-15T21:29:55.772Z,8.67
2023-11-15T21:32:29.502Z,8.61
2023-11-15T21:35:01.658Z,8.58
2023-11-15T21:37:33.720Z,8.55
2023-11-15T21:40:07.271Z,8.51
2023-11-15T21:42:40.002Z,8.45
2023-11-15T21:45:13.702Z,8.41
2023-11-15T21:47:46.980Z,8.33
2023-11-15T21:50:22.038Z,8.31
2023-11-15T21:52:57.944Z,8.29
2023-11-15T21:55:30.628Z,8.26
2023-11-15T21:58:08.030Z,8.22
2023-11-15T22:00:40.748Z,8.20
2023-11-15T22:03:12.935Z,8.18
2023-11-15T22:05:45.164Z,8.12
2023-11-15T22:08:17.267Z,8.11
2023-11-15T22:10:49.293Z,8.10
2023-11-15T22:13:43.512Z,8.07
2023-11-15T22:16:16.447Z,8.04
2023-11-15T22:18:49.599Z,7.99
2023-11-15T22:21:21.564Z,7.96
2023-11-15T22:23:53.699Z,7.92
2023-11-15T22:26:25.786Z,7.92
2023-11-15T22:28:57.955Z,7.90
2023-11-15T22:31:30.179Z,7.89
2023-11-15T22:34:02.320Z,7.84
2023-11-15T22:36:34.494Z,7.83
2023-11-15T22:39:06.875Z,7.80
2023-11-15T22:41:39.025Z,7.77
2023-11-15T22:44:11.307Z,7.74
2023-11-15T22:46:43.336Z,7.71
2023-11-15T22:49:15.403Z,7.68
2023-11-15T22:51:47.790Z,7.66
2023-11-15T22:54:20.096Z,7.68
2023-11-15T22:56:52.810Z,7.66
2023-11-15T22:59:24.887Z,7.55
2023-11-15T23:01:56.999Z,7.64
2023-11-15T23:04:29.247Z,7.64
2023-11-15T23:07:02.253Z,7.64
2023-11-15T23:09:34.712Z,7.61
2023-11-15T23:12:07.904Z,7.60
2023-11-15T23:14:40.044Z,7.60
2023-11-15T23:17:12.847Z,7.47
2023-11-15T23:19:46.175Z,7.56
2023-11-15T23:22:18.348Z,7.47
2023-11-15T23:24:50.468Z,7.54
2023-11-15T23:27:22.811Z,7.54
2023-11-15T23:29:55.175Z,7.54
2023-11-15T23:32:29.299Z,7.57
2023-11-15T23:35:03.745Z,7.59
2023-11-15T23:37:36.157Z,7.59
2023-11-15T23:40:13.245Z,7.60
2023-11-15T23:42:46.744Z,7.62
2023-11-15T23:45:18.783Z,7.64
2023-11-15T23:47:51.371Z,7.55
2023-11-15T23:50:24.299Z,7.65
2023-11-15T23:52:56.733Z,7.68
2023-11-15T23:55:30.201Z,7.70
2023-11-15T23:58:04.754Z,7.70
